Time;durP1;ratioP1;P1;durP2;ratioP2;P2;SDS_P1;SDS_P2;PMS_P1;PMS_P2;Temp;Humidity;BMP_temperature;BMP_pressure;BME280_temperature;BME280_humidity;BME280_pressure;Samples;Min_cycle;Max_cycle;Signal;HPM_P1;HPM_P2
2023/06/27 00:02:41;;;;;;;;;;;;;;;23.41;50.79;100072.75;5410007;32;34821;-71
2023/06/27 00:05:43;;;;;;;;;;;;;;;23.68;50.07;100071.91;5404985;32;34197;-71
2023/06/27 00:08:45;;;;;;;;;;;;;;;23.70;49.55;100070.78;5405732;32;34206;-86
2023/06/27 00:11:47;;;;;;;;;;;;;;;24.00;49.51;100071.37;5393430;32;34721;-86
2023/06/27 00:14:49;;;;;;;;;;;;;;;23.71;49.54;100071.63;5390551;32;34321;-71
2023/06/27 00:17:53;;;;;;;;;;;;;;;23.03;52.38;100069.28;5410500;32;34555;-86
2023/06/27 00:20:56;;;;;;;;;;;;;;;23.12;53.57;100071.09;5404105;32;34324;-76
2023/06/27 00:23:58;;;;;;;;;;;;;;;23.48;51.83;100079.19;5409286;32;34995;-87
2023/06/27 00:27:01;;;;;;;;;;;;;;;23.05;50.76;100078.00;5392060;32;34672;-75
2023/06/27 00:30:03;;;;;;;;;;;;;;;23.13;53.47;100083.50;5407282;32;34414;-87
2023/06/27 00:33:05;;;;;;;;;;;;;;;23.50;51.53;100085.25;5408113;32;34306;-71
2023/06/27 00:36:07;;;;;;;;;;;;;;;23.35;51.52;100081.41;5404006;32;34944;-86
2023/06/27 00:39:09;;;;;;;;;;;;;;;23.15;52.25;100084.19;5409827;32;34005;-71
2023/06/27 00:42:11;;;;;;;;;;;;;;;23.37;51.72;100079.41;5403443;32;34317;-86
2023/06/27 00:45:13;;;;;;;;;;;;;;;23.31;51.65;100080.00;5392276;32;34858;-72
2023/06/27 00:48:15;;;;;;;;;;;;;;;22.82;54.06;100087.38;5404470;32;34235;-86
2023/06/27 00:51:17;;;;;;;;;;;;;;;23.08;52.70;100085.75;5406506;32;35005;-86
2023/06/27 00:54:19;;;;;;;;;;;;;;;22.83;52.88;100102.47;5408065;32;35107;-87
2023/06/27 00:57:21;;;;;;;;;;;;;;;22.59;52.57;100101.09;5405486;32;35857;-86
2023/06/27 01:00:23;;;;;;;;;;;;;;;22.74;53.21;100084.59;5393419;32;35413;-82
2023/06/27 01:03:25;;;;;;;;;;;;;;;22.52;51.40;100088.44;5404095;32;35259;-72
2023/06/27 01:06:30;;;;;;;;;;;;;;;22.89;51.70;100077.78;5405228;32;34137;-81
2023/06/27 01:09:41;;;;;;;;;;;;;;;22.71;51.18;100080.34;5404905;32;35034;-73
2023/06/27 01:12:49;;;;;;;;;;;;;;;22.61;51.10;100077.72;5403465;32;34464;-87
2023/06/27 01:15:51;;;;;;;;;;;;;;;23.06;51.09;100076.19;5405851;32;34907;-80
2023/06/27 01:18:54;;;;;;;;;;;;;;;23.16;51.08;100077.81;5389887;32;34991;-87
2023/06/27 01:22:05;;;;;;;;;;;;;;;22.70;52.89;100081.34;5406863;32;35122;-76
2023/06/27 01:25:09;;;;;;;;;;;;;;;22.87;52.55;100071.75;5404693;32;34834;-71
2023/06/27 01:28:14;;;;;;;;;;;;;;;23.35;51.19;100066.16;5403900;32;34897;-70
2023/06/27 01:31:24;;;;;;;;;;;;;;;22.51;53.77;100066.16;5392089;32;35394;-86
2023/06/27 01:34:30;;;;;;;;;;;;;;;22.56;53.11;100058.53;5391640;32;35852;-86
2023/06/27 01:37:36;;;;;;;;;;;;;;;22.20;54.49;100054.78;5408331;32;33890;-87
2023/06/27 01:40:38;;;;;;;;;;;;;;;22.03;55.36;100044.78;5378026;32;34359;-72
2023/06/27 01:43:40;;;;;;;;;;;;;;;22.61;53.65;100042.88;5403106;32;34621;-87
2023/06/27 01:46:42;;;;;;;;;;;;;;;22.22;55.07;100049.28;5403680;32;36126;-88
2023/06/27 01:49:44;;;;;;;;;;;;;;;22.20;55.02;100040.56;5391027;32;34496;-80
2023/06/27 01:52:46;;;;;;;;;;;;;;;22.00;55.36;100037.88;5407335;32;36137;-72
2023/06/27 01:55:49;;;;;;;;;;;;;;;21.68;56.65;100039.97;5391263;32;34351;-86
2023/06/27 01:58:51;;;;;;;;;;;;;;;22.73;53.53;100031.97;5407365;32;34780;-72
2023/06/27 02:01:53;;;;;;;;;;;;;;;22.32;54.57;100037.59;5403808;32;34257;-86
2023/06/27 02:04:55;;;;;;;;;;;;;;;22.00;55.49;100032.53;5405902;32;34835;-87
2023/06/27 02:07:57;;;;;;;;;;;;;;;22.34;54.64;100027.56;5402589;32;34696;-72
2023/06/27 02:10:59;;;;;;;;;;;;;;;22.57;53.83;100027.25;5401339;32;34506;-87
2023/06/27 02:14:02;;;;;;;;;;;;;;;22.74;53.39;100034.53;5406579;32;34516;-71
2023/06/27 02:17:04;;;;;;;;;;;;;;;22.46;53.79;100040.81;5404441;32;34585;-86
2023/06/27 02:20:06;;;;;;;;;;;;;;;22.95;52.64;100037.00;5393557;32;34279;-71
2023/06/27 02:23:08;;;;;;;;;;;;;;;22.12;54.81;100039.44;5404651;32;35415;-86
2023/06/27 02:26:10;;;;;;;;;;;;;;;22.26;54.96;100037.31;5407769;32;34515;-71
2023/06/27 02:29:12;;;;;;;;;;;;;;;22.14;55.51;100026.75;5403132;32;34641;-85
2023/06/27 02:32:14;;;;;;;;;;;;;;;22.58;54.25;100019.06;5391681;32;34973;-71
2023/06/27 02:35:16;;;;;;;;;;;;;;;23.01;53.08;100022.19;5394524;32;34552;-72
2023/06/27 02:38:18;;;;;;;;;;;;;;;22.21;55.04;100026.19;5404066;32;34369;-87
2023/06/27 02:41:21;;;;;;;;;;;;;;;22.42;54.71;100013.50;5393098;32;34854;-87
2023/06/27 02:44:23;;;;;;;;;;;;;;;22.16;55.22;100002.56;5400098;32;35329;-87
2023/06/27 02:47:25;;;;;;;;;;;;;;;23.51;50.56;99987.72;5392760;32;34790;-70
2023/06/27 02:50:27;;;;;;;;;;;;;;;23.75;49.60;100000.53;5402184;32;35946;-71
2023/06/27 02:53:29;;;;;;;;;;;;;;;23.68;49.04;99994.09;5401644;32;35026;-81
2023/06/27 02:56:32;;;;;;;;;;;;;;;23.33;49.77;100000.28;5404348;32;34204;-86
2023/06/27 02:59:34;;;;;;;;;;;;;;;23.36;49.46;99997.28;5401028;32;35668;-72
2023/06/27 03:02:36;;;;;;;;;;;;;;;22.74;51.21;99990.84;5407494;32;34686;-72
2023/06/27 03:05:38;;;;;;;;;;;;;;;22.58;51.59;99997.62;5402877;32;35662;-72
2023/06/27 03:08:40;;;;;;;;;;;;;;;22.75;51.02;99998.72;5405081;32;35132;-86
2023/06/27 03:11:42;;;;;;;;;;;;;;;23.68;48.43;100028.97;5391175;32;34852;-72
2023/06/27 03:14:44;;;;;;;;;;;;;;;23.39;49.00;100026.47;5406053;32;34686;-72
2023/06/27 03:17:46;;;;;;;;;;;;;;;22.69;48.89;100021.56;5409139;32;34541;-87
2023/06/27 03:20:48;;;;;;;;;;;;;;;23.24;47.49;100024.28;5404357;32;33050;-72
2023/06/27 03:23:50;;;;;;;;;;;;;;;23.16;47.50;100018.00;5406099;32;34891;-88
2023/06/27 03:26:52;;;;;;;;;;;;;;;22.74;48.65;100017.63;5406704;32;35187;-81
2023/06/27 03:29:54;;;;;;;;;;;;;;;23.14;47.44;100015.47;5406570;32;35056;-72
2023/06/27 03:32:56;;;;;;;;;;;;;;;23.39;46.47;100005.88;5401888;32;34377;-73
2023/06/27 03:35:58;;;;;;;;;;;;;;;23.19;47.07;100007.00;5404661;32;34672;-72
2023/06/27 03:39:00;;;;;;;;;;;;;;;22.80;47.97;100008.97;5414515;32;34459;-72
2023/06/27 03:42:02;;;;;;;;;;;;;;;23.71;45.81;100012.59;5403649;32;35397;-81
2023/06/27 03:45:05;;;;;;;;;;;;;;;22.88;48.31;100003.75;5393536;32;34169;-81
2023/06/27 03:48:07;;;;;;;;;;;;;;;23.11;47.75;100004.19;5376847;32;35468;-72
2023/06/27 03:51:09;;;;;;;;;;;;;;;23.89;45.37;100007.19;5407778;32;34947;-71
2023/06/27 03:54:11;;;;;;;;;;;;;;;24.26;44.08;99991.72;5406585;32;34858;-86
2023/06/27 03:57:13;;;;;;;;;;;;;;;23.80;45.32;100000.09;5404697;32;35294;-86
2023/06/27 04:00:16;;;;;;;;;;;;;;;24.01;44.88;99997.91;5409154;32;34764;-71
2023/06/27 04:03:18;;;;;;;;;;;;;;;24.36;44.30;99986.28;5405175;32;34952;-71
2023/06/27 04:06:21;;;;;;;;;;;;;;;24.32;44.46;99991.09;5408567;32;35075;-71
2023/06/27 04:09:23;;;;;;;;;;;;;;;23.89;46.03;99999.97;5391618;32;34924;-72
2023/06/27 04:12:25;;;;;;;;;;;;;;;23.15;47.94;99995.72;5400670;32;34483;-72
2023/06/27 04:15:26;;;;;;;;;;;;;;;24.01;45.93;99989.84;5407056;32;34772;-72
2023/06/27 04:18:32;;;;;;;;;;;;;;;24.03;46.06;99998.63;5403318;32;34382;-80
2023/06/27 04:21:34;;;;;;;;;;;;;;;24.26;45.48;99999.78;5394150;32;35570;-87
2023/06/27 04:24:36;;;;;;;;;;;;;;;23.85;45.92;100011.22;5400419;32;34833;-81
2023/06/27 04:27:40;;;;;;;;;;;;;;;24.74;42.85;100008.34;5408302;32;34717;-71
2023/06/27 04:30:42;;;;;;;;;;;;;;;23.55;45.26;100021.28;5405025;32;34623;-87
2023/06/27 04:33:44;;;;;;;;;;;;;;;24.26;43.33;100021.25;5404264;32;35302;-71
2023/06/27 04:36:47;;;;;;;;;;;;;;;23.97;44.08;100032.28;5406407;32;34390;-86
2023/06/27 04:39:49;;;;;;;;;;;;;;;24.28;43.27;100026.47;5401177;32;34464;-70
2023/06/27 04:42:51;;;;;;;;;;;;;;;24.35;43.36;100041.00;5391527;32;34905;-70
2023/06/27 04:45:53;;;;;;;;;;;;;;;24.68;42.73;100031.31;5399416;32;34285;-87
2023/06/27 04:48:59;;;;;;;;;;;;;;;25.32;41.25;100021.03;5392634;32;34428;-70
2023/06/27 04:52:01;;;;;;;;;;;;;;;24.75;42.28;100005.47;5404500;32;36286;-90
2023/06/27 04:55:04;;;;;;;;;;;;;;;24.97;42.38;99989.78;5392351;32;34706;-72
2023/06/27 04:58:06;;;;;;;;;;;;;;;25.12;43.04;100002.50;5408618;32;35025;-89
2023/06/27 05:01:08;;;;;;;;;;;;;;;25.51;43.37;99999.22;5403993;32;34726;-72
2023/06/27 05:04:10;;;;;;;;;;;;;;;25.07;45.01;100004.81;5404443;32;35406;-80
2023/06/27 05:07:12;;;;;;;;;;;;;;;24.58;47.60;100011.75;5402420;32;35093;-80
2023/06/27 05:10:14;;;;;;;;;;;;;;;24.51;48.91;100005.34;5407043;32;35389;-72
2023/06/27 05:13:16;;;;;;;;;;;;;;;24.75;47.17;100010.84;5404279;32;36094;-72
2023/06/27 05:16:21;;;;;;;;;;;;;;;24.39;49.80;100012.81;5400456;32;34314;-79
2023/06/27 05:19:23;;;;;;;;;;;;;;;25.37;46.43;100016.84;5399073;32;34204;-72
2023/06/27 05:22:25;;;;;;;;;;;;;;;24.53;50.72;100003.31;5397620;32;35604;-70
2023/06/27 05:25:28;;;;;;;;;;;;;;;23.97;51.28;100015.34;5406753;32;34266;-83
2023/06/27 05:28:29;;;;;;;;;;;;;;;23.98;52.80;100027.75;5386235;32;34247;-79
2023/06/27 05:31:31;;;;;;;;;;;;;;;24.64;50.64;100021.88;5403404;32;34178;-71
2023/06/27 05:34:33;;;;;;;;;;;;;;;24.70;48.41;100031.97;5398938;32;34427;-76
2023/06/27 05:37:35;;;;;;;;;;;;;;;25.31;49.00;100022.00;5401836;32;35610;-73
2023/06/27 05:40:37;;;;;;;;;;;;;;;25.06;46.54;100027.34;5400273;32;34359;-78
2023/06/27 05:43:39;;;;;;;;;;;;;;;24.55;47.09;100023.69;5397578;32;35640;-75
2023/06/27 05:46:48;;;;;;;;;;;;;;;25.73;44.74;100026.53;5401308;32;34247;-70
2023/06/27 05:49:52;;;;;;;;;;;;;;;25.88;44.48;100023.00;5400477;32;34315;-73
2023/06/27 05:52:54;;;;;;;;;;;;;;;26.05;44.84;100031.94;5398870;32;35890;-69
2023/06/27 05:55:56;;;;;;;;;;;;;;;25.51;45.31;100042.28;5396610;32;35513;-73
2023/06/27 05:59:00;;;;;;;;;;;;;;;26.24;44.42;100038.81;5395489;32;34523;-72
2023/06/27 06:02:05;;;;;;;;;;;;;;;27.53;41.98;100028.66;5396688;32;34534;-70
2023/06/27 06:05:08;;;;;;;;;;;;;;;27.67;41.12;100029.75;5389295;32;33349;-78
2023/06/27 06:08:10;;;;;;;;;;;;;;;27.39;41.90;100032.12;5397265;32;34453;-69
2023/06/27 06:11:12;;;;;;;;;;;;;;;28.45;40.06;100017.00;5398235;32;34124;-74
2023/06/27 06:14:15;;;;;;;;;;;;;;;28.31;40.40;100024.06;5398451;32;35990;-78
2023/06/27 06:17:17;;;;;;;;;;;;;;;28.25;41.07;100017.50;5398406;32;34156;-69
2023/06/27 06:20:18;;;;;;;;;;;;;;;29.56;38.18;100010.59;5398124;32;34522;-67
2023/06/27 06:23:21;;;;;;;;;;;;;;;28.55;40.44;100009.47;5402282;32;35460;-71
2023/06/27 06:26:22;;;;;;;;;;;;;;;27.38;43.00;100014.28;5400948;32;34115;-69
2023/06/27 06:29:24;;;;;;;;;;;;;;;27.98;41.82;100012.69;5404178;32;35803;-71
2023/06/27 06:32:26;;;;;;;;;;;;;;;28.15;41.82;100025.03;5402343;32;35219;-71
2023/06/27 06:35:34;;;;;;;;;;;;;;;28.64;40.76;100026.44;5403518;32;34232;-74
2023/06/27 06:38:36;;;;;;;;;;;;;;;27.02;44.82;100021.16;5400822;32;32970;-75
2023/06/27 06:41:38;;;;;;;;;;;;;;;26.63;45.70;100030.03;5373788;32;35836;-73
2023/06/27 06:44:40;;;;;;;;;;;;;;;26.95;45.54;100031.81;5400642;32;34416;-73
2023/06/27 06:47:42;;;;;;;;;;;;;;;26.95;45.55;100043.41;5398914;32;34478;-70
2023/06/27 06:50:44;;;;;;;;;;;;;;;26.55;46.28;100059.72;5401835;32;36503;-69
2023/06/27 06:53:46;;;;;;;;;;;;;;;26.49;46.37;100057.69;5398555;32;35993;-67
2023/06/27 06:56:50;;;;;;;;;;;;;;;26.53;46.81;100067.09;5399301;32;34355;-73
2023/06/27 06:59:53;;;;;;;;;;;;;;;25.59;49.38;100079.97;5401805;32;35475;-77
2023/06/27 07:02:55;;;;;;;;;;;;;;;25.11;50.91;100072.53;5383248;32;33855;-85
2023/06/27 07:05:57;;;;;;;;;;;;;;;25.09;50.91;100070.00;5386081;32;34386;-80
2023/06/27 07:08:59;;;;;;;;;;;;;;;25.06;51.12;100081.09;5398845;32;33270;-80
2023/06/27 07:12:01;;;;;;;;;;;;;;;24.59;52.29;100078.75;5400245;32;34194;-80
2023/06/27 07:15:04;;;;;;;;;;;;;;;24.43;53.18;100113.59;5402426;32;34225;-81
2023/06/27 07:18:06;;;;;;;;;;;;;;;23.44;56.68;100112.66;5396293;32;34540;-79
2023/06/27 07:21:08;;;;;;;;;;;;;;;24.63;53.52;100108.84;5397285;32;35595;-67
2023/06/27 07:24:10;;;;;;;;;;;;;;;24.05;55.70;100112.88;5400477;32;35898;-77
2023/06/27 07:27:12;;;;;;;;;;;;;;;24.12;55.75;100115.78;5399511;32;34465;-73
2023/06/27 07:30:15;;;;;;;;;;;;;;;24.16;55.74;100111.81;5394237;32;34146;-70
2023/06/27 07:33:17;;;;;;;;;;;;;;;24.02;56.38;100118.56;5398584;32;33638;-66
2023/06/27 07:36:20;;;;;;;;;;;;;;;24.01;56.90;100110.66;5394447;32;36363;-66
2023/06/27 07:39:22;;;;;;;;;;;;;;;24.17;56.61;100113.50;5396036;32;35597;-78
2023/06/27 07:42:25;;;;;;;;;;;;;;;25.00;54.50;100105.06;5396837;32;34305;-75
2023/06/27 07:45:27;;;;;;;;;;;;;;;24.30;56.82;100113.09;5390175;32;34228;-76
2023/06/27 07:48:30;;;;;;;;;;;;;;;25.01;54.10;100093.31;5393008;32;35418;-85
2023/06/27 07:51:32;;;;;;;;;;;;;;;24.97;54.43;100095.47;5385671;32;35466;-66
2023/06/27 07:54:35;;;;;;;;;;;;;;;24.66;55.87;100102.31;5398205;32;34364;-79
2023/06/27 07:57:37;;;;;;;;;;;;;;;24.82;54.92;100100.59;5387287;32;35516;-74
2023/06/27 08:00:39;;;;;;;;;;;;;;;24.55;56.13;100106.13;5393749;32;34829;-73
2023/06/27 08:03:42;;;;;;;;;;;;;;;24.74;55.33;100113.97;5403141;32;35476;-67
2023/06/27 08:06:44;;;;;;;;;;;;;;;25.29;54.38;100108.25;5405255;32;34219;-75
2023/06/27 08:09:46;;;;;;;;;;;;;;;25.37;53.69;100110.12;5401143;32;35663;-72
2023/06/27 08:12:49;;;;;;;;;;;;;;;26.29;50.95;100117.28;5397136;32;34399;-82
2023/06/27 08:15:51;;;;;;;;;;;;;;;25.26;53.62;100115.81;5399113;32;35498;-84
2023/06/27 08:18:53;;;;;;;;;;;;;;;24.81;55.04;100117.72;5377353;32;34338;-76
2023/06/27 08:21:55;;;;;;;;;;;;;;;24.99;54.86;100119.50;5403891;32;36338;-72
2023/06/27 08:24:57;;;;;;;;;;;;;;;25.44;53.35;100121.09;5399849;32;35351;-69
2023/06/27 08:27:59;;;;;;;;;;;;;;;25.62;52.34;100113.75;5397148;32;35293;-70
2023/06/27 08:31:01;;;;;;;;;;;;;;;24.97;54.31;100127.72;5396841;32;33522;-72
2023/06/27 08:34:03;;;;;;;;;;;;;;;24.91;54.33;100124.81;5374857;32;34414;-68
2023/06/27 08:37:05;;;;;;;;;;;;;;;25.15;53.59;100119.63;5402073;32;34270;-78
2023/06/27 08:40:09;;;;;;;;;;;;;;;25.19;53.51;100112.94;5384770;32;34145;-72
2023/06/27 08:43:11;;;;;;;;;;;;;;;24.88;53.69;100125.16;5394981;32;35460;-76
2023/06/27 08:46:13;;;;;;;;;;;;;;;25.07;53.45;100125.81;5400513;32;35215;-84
2023/06/27 08:49:18;;;;;;;;;;;;;;;25.32;52.87;100124.09;5392682;32;34435;-73
2023/06/27 08:52:20;;;;;;;;;;;;;;;25.81;51.58;100118.87;5399171;32;36127;-85
2023/06/27 08:55:22;;;;;;;;;;;;;;;25.63;52.64;100129.75;5398142;32;34557;-75
2023/06/27 08:58:27;;;;;;;;;;;;;;;24.91;54.41;100124.81;5391686;32;34274;-69
2023/06/27 09:01:32;;;;;;;;;;;;;;;25.16;54.27;100125.84;5391845;32;34264;-70
2023/06/27 09:04:34;;;;;;;;;;;;;;;25.22;53.81;100120.66;5395634;32;34758;-76
2023/06/27 09:07:36;;;;;;;;;;;;;;;24.80;55.50;100134.84;5394893;32;34250;-69
2023/06/27 09:10:41;;;;;;;;;;;;;;;24.36;57.08;100136.69;5401583;32;35530;-69
2023/06/27 09:13:43;;;;;;;;;;;;;;;24.54;56.75;100140.22;5393207;32;35433;-79
2023/06/27 09:16:45;;;;;;;;;;;;;;;24.11;58.42;100137.44;5396210;32;34608;-73
2023/06/27 09:19:47;;;;;;;;;;;;;;;25.44;54.73;100129.16;5397809;32;33350;-69
2023/06/27 09:22:50;;;;;;;;;;;;;;;24.60;57.02;100144.09;5396005;32;34125;-65
2023/06/27 09:26:08;;;;;;;;;;;;;;;25.04;55.76;100144.06;5396399;32;34110;-72
2023/06/27 09:29:11;;;;;;;;;;;;;;;25.54;54.38;100146.03;5384688;32;34373;-82
2023/06/27 09:32:13;;;;;;;;;;;;;;;25.34;55.18;100157.03;5400192;32;35471;-73
2023/06/27 09:35:14;;;;;;;;;;;;;;;26.11;53.56;100157.84;5402063;32;34063;-77
2023/06/27 09:38:33;;;;;;;;;;;;;;;26.57;52.13;100150.16;5399815;32;34119;-72
2023/06/27 09:41:45;;;;;;;;;;;;;;;26.95;50.92;100151.28;5398677;32;34066;-68
2023/06/27 09:44:47;;;;;;;;;;;;;;;27.44;49.22;100151.19;5388362;32;35600;-79
2023/06/27 09:47:51;;;;;;;;;;;;;;;27.50;49.04;100149.63;5401598;32;34385;-79
2023/06/27 09:51:00;;;;;;;;;;;;;;;26.13;52.30;100155.81;5395878;32;34264;-70
2023/06/27 09:54:02;;;;;;;;;;;;;;;26.12;51.95;100153.28;5382857;32;34587;-80
2023/06/27 09:57:05;;;;;;;;;;;;;;;26.77;50.88;100149.81;5384762;32;35866;-72
2023/06/27 10:00:08;;;;;;;;;;;;;;;27.00;49.71;100159.72;5397606;32;34274;-83
2023/06/27 10:03:10;;;;;;;;;;;;;;;27.02;49.74;100151.44;5396048;32;34467;-74
2023/06/27 10:06:12;;;;;;;;;;;;;;;26.90;49.50;100150.97;5396132;32;35681;-72
2023/06/27 10:09:15;;;;;;;;;;;;;;;26.57;50.66;100160.09;5398594;32;35654;-81
2023/06/27 10:12:17;;;;;;;;;;;;;;;27.32;48.30;100160.69;5402516;32;35504;-76
2023/06/27 10:15:19;;;;;;;;;;;;;;;27.66;46.47;100156.81;5399718;32;34427;-81
2023/06/27 10:18:21;;;;;;;;;;;;;;;28.17;44.10;100147.28;5401800;32;34405;-76
2023/06/27 10:21:24;;;;;;;;;;;;;;;27.44;45.99;100151.19;5402769;32;37511;-71
2023/06/27 10:24:26;;;;;;;;;;;;;;;28.12;44.80;100155.06;5402437;32;33380;-77
2023/06/27 10:27:31;;;;;;;;;;;;;;;27.87;45.05;100151.69;5397623;32;33318;-72
2023/06/27 10:30:37;;;;;;;;;;;;;;;26.86;47.77;100163.13;5385222;32;35647;-72
2023/06/27 10:33:42;;;;;;;;;;;;;;;26.62;47.53;100161.28;5397560;32;34050;-69
2023/06/27 10:36:51;;;;;;;;;;;;;;;26.91;46.73;100155.34;5388135;32;35706;-69
2023/06/27 10:39:57;;;;;;;;;;;;;;;26.42;47.84;100150.00;5393669;32;35316;-68
2023/06/27 10:42:59;;;;;;;;;;;;;;;27.41;45.89;100156.09;5402162;32;34368;-78
2023/06/27 10:46:10;;;;;;;;;;;;;;;26.67;47.05;100174.25;5399502;32;35494;-75
2023/06/27 10:49:12;;;;;;;;;;;;;;;26.27;47.67;100180.41;5394449;32;34283;-74
2023/06/27 10:52:21;;;;;;;;;;;;;;;26.63;47.54;100184.50;5397808;32;34591;-67
2023/06/27 10:55:26;;;;;;;;;;;;;;;26.24;48.00;100195.06;5396243;32;34184;-69
2023/06/27 10:58:38;;;;;;;;;;;;;;;26.55;47.13;100186.37;5396201;32;34369;-76
2023/06/27 11:01:44;;;;;;;;;;;;;;;26.15;48.03;100178.06;5390224;32;35723;-68
2023/06/27 11:04:46;;;;;;;;;;;;;;;26.43;46.64;100178.63;5394976;32;35530;-69
2023/06/27 11:07:52;;;;;;;;;;;;;;;26.29;45.62;100186.50;5397636;32;35542;-70
2023/06/27 11:11:03;;;;;;;;;;;;;;;26.00;45.85;100182.38;5394939;32;37592;-78
2023/06/27 11:14:06;;;;;;;;;;;;;;;25.42;47.73;100193.06;5395318;32;35530;-66
2023/06/27 11:17:08;;;;;;;;;;;;;;;25.91;46.79;100188.75;5391266;32;34377;-64
2023/06/27 11:20:10;;;;;;;;;;;;;;;25.55;48.03;100209.59;5390230;32;34280;-77
2023/06/27 11:23:13;;;;;;;;;;;;;;;25.60;48.72;100218.03;5398376;32;35126;-70
2023/06/27 11:26:15;;;;;;;;;;;;;;;25.07;50.08;100222.59;5391557;32;34611;-68
2023/06/27 11:29:17;;;;;;;;;;;;;;;24.91;50.78;100235.03;5393096;32;34379;-67
2023/06/27 11:32:19;;;;;;;;;;;;;;;25.67;48.85;100240.59;5398505;32;34434;-67
2023/06/27 11:35:22;;;;;;;;;;;;;;;25.24;49.88;100249.59;5392360;32;34168;-76
2023/06/27 11:38:25;;;;;;;;;;;;;;;25.87;47.80;100242.06;5402971;32;34645;-69
2023/06/27 11:41:27;;;;;;;;;;;;;;;25.62;47.74;100246.47;5398847;32;34219;-73
2023/06/27 11:44:30;;;;;;;;;;;;;;;25.47;47.67;100248.06;5390994;32;33486;-84
2023/06/27 11:47:32;;;;;;;;;;;;;;;24.67;49.42;100247.28;5372472;32;34438;-80
2023/06/27 11:50:34;;;;;;;;;;;;;;;24.66;49.96;100244.72;5396441;32;34277;-72
2023/06/27 11:53:36;;;;;;;;;;;;;;;24.83;49.63;100241.19;5396494;32;33485;-69
2023/06/27 11:56:38;;;;;;;;;;;;;;;25.19;49.16;100250.09;5398692;32;33363;-77
2023/06/27 11:59:41;;;;;;;;;;;;;;;25.66;48.28;100257.75;5395428;32;34049;-75
2023/06/27 12:02:47;;;;;;;;;;;;;;;25.58;48.23;100255.03;5382302;32;34362;-72
2023/06/27 12:05:50;;;;;;;;;;;;;;;24.82;50.66;100261.00;5398339;32;35041;-69
2023/06/27 12:08:52;;;;;;;;;;;;;;;24.45;51.95;100258.47;5404005;32;34380;-68
2023/06/27 12:11:58;;;;;;;;;;;;;;;24.66;51.53;100256.31;5397726;32;38337;-68
2023/06/27 12:15:12;;;;;;;;;;;;;;;24.93;51.16;100254.56;5384879;32;36094;-67
2023/06/27 12:18:22;;;;;;;;;;;;;;;24.86;51.60;100251.66;5402378;32;33708;-65
2023/06/27 12:21:24;;;;;;;;;;;;;;;24.47;52.77;100248.41;5380386;32;34349;-65
2023/06/27 12:24:26;;;;;;;;;;;;;;;24.84;52.50;100242.88;5395571;32;32902;-67
2023/06/27 12:27:33;;;;;;;;;;;;;;;24.81;53.79;100240.53;5398799;32;34291;-66
2023/06/27 12:30:35;;;;;;;;;;;;;;;24.67;54.68;100235.69;5400850;32;34166;-83
2023/06/27 12:33:37;;;;;;;;;;;;;;;24.53;54.35;100237.91;5400930;32;34622;-82
2023/06/27 12:36:39;;;;;;;;;;;;;;;25.02;53.11;100230.25;5394578;32;34309;-68
2023/06/27 12:39:42;;;;;;;;;;;;;;;24.47;53.67;100240.34;5393085;32;34783;-81
2023/06/27 12:42:44;;;;;;;;;;;;;;;24.53;53.30;100226.31;5388667;32;34247;-65
2023/06/27 12:46:01;;;;;;;;;;;;;;;25.52;51.13;100215.31;5397454;32;34291;-65
2023/06/27 12:49:03;;;;;;;;;;;;;;;24.15;53.61;100249.75;5396806;32;33585;-63
2023/06/27 12:52:05;;;;;;;;;;;;;;;25.50;50.30;100245.03;5379328;32;34482;-68
2023/06/27 12:55:08;;;;;;;;;;;;;;;24.19;53.64;100244.91;5406452;32;34350;-76
2023/06/27 12:58:10;;;;;;;;;;;;;;;23.99;54.51;100242.34;5402713;32;35539;-68
2023/06/27 13:01:12;;;;;;;;;;;;;;;23.76;55.17;100241.91;5399646;32;34177;-69
2023/06/27 13:04:14;;;;;;;;;;;;;;;23.92;55.10;100237.72;5403695;32;37073;-67
2023/06/27 13:07:17;;;;;;;;;;;;;;;23.77;55.34;100214.06;5403452;32;34823;-73
2023/06/27 13:10:19;;;;;;;;;;;;;;;24.48;53.56;100199.94;5378717;32;34947;-72
2023/06/27 13:13:21;;;;;;;;;;;;;;;24.35;53.73;100201.31;5392709;32;34928;-69
2023/06/27 13:16:23;;;;;;;;;;;;;;;24.98;51.72;100196.59;5396980;32;34719;-80
2023/06/27 13:19:26;;;;;;;;;;;;;;;23.95;54.42;100203.34;5399964;32;36137;-77
2023/06/27 13:22:28;;;;;;;;;;;;;;;24.16;52.98;100210.31;5395137;32;34317;-80
2023/06/27 13:25:31;;;;;;;;;;;;;;;23.44;55.09;100218.12;5396287;32;36242;-70
2023/06/27 13:28:33;;;;;;;;;;;;;;;23.85;54.14;100247.37;5401225;32;34143;-77
2023/06/27 13:31:35;;;;;;;;;;;;;;;23.82;53.81;100253.84;5394900;32;35930;-79
2023/06/27 13:34:37;;;;;;;;;;;;;;;23.99;53.58;100246.84;5396708;32;36011;-75
2023/06/27 13:37:39;;;;;;;;;;;;;;;24.02;53.87;100236.69;5382196;32;33471;-66
2023/06/27 13:41:01;;;;;;;;;;;;;;;24.30;53.33;100228.59;5396567;32;33901;-80
2023/06/27 13:44:03;;;;;;;;;;;;;;;23.79;53.60;100224.66;5399007;32;34384;-85
2023/06/27 13:47:05;;;;;;;;;;;;;;;23.93;52.84;100220.63;5400166;32;35344;-71
2023/06/27 13:50:08;;;;;;;;;;;;;;;25.12;49.48;100219.44;5378689;32;34297;-66
2023/06/27 13:53:10;;;;;;;;;;;;;;;24.19;49.97;100201.94;5398326;32;34325;-69
2023/06/27 13:56:13;;;;;;;;;;;;;;;24.05;50.56;100193.41;5389425;32;34355;-73
2023/06/27 13:59:14;;;;;;;;;;;;;;;24.25;50.72;100191.44;5396709;32;35636;-67
2023/06/27 14:02:17;;;;;;;;;;;;;;;24.49;49.86;100187.34;5392910;32;35417;-74
2023/06/27 14:05:19;;;;;;;;;;;;;;;24.74;49.21;100189.22;5391914;32;34410;-80
2023/06/27 14:08:21;;;;;;;;;;;;;;;24.80;46.44;100185.06;5391980;32;35470;-68
2023/06/27 14:11:26;;;;;;;;;;;;;;;24.68;47.34;100195.22;5391608;32;34199;-69
2023/06/27 14:14:28;;;;;;;;;;;;;;;24.64;47.24;100201.91;5391812;32;35315;-69
2023/06/27 14:17:30;;;;;;;;;;;;;;;25.04;45.83;100219.34;5390395;32;34605;-68
2023/06/27 14:20:32;;;;;;;;;;;;;;;24.79;45.38;100223.69;5393107;32;34296;-81
2023/06/27 14:23:38;;;;;;;;;;;;;;;23.60;46.30;100225.53;5397058;32;34357;-82
2023/06/27 14:26:40;;;;;;;;;;;;;;;24.06;45.60;100226.47;5400269;32;34842;-68
2023/06/27 14:29:42;;;;;;;;;;;;;;;24.24;44.92;100227.34;5397032;32;34383;-82
2023/06/27 14:32:45;;;;;;;;;;;;;;;24.18;44.92;100219.91;5384165;32;34253;-68
2023/06/27 14:35:49;;;;;;;;;;;;;;;23.65;45.73;100231.34;5399298;32;34564;-81
2023/06/27 14:38:51;;;;;;;;;;;;;;;24.07;44.80;100236.22;5361699;32;34152;-69
2023/06/27 14:41:53;;;;;;;;;;;;;;;23.85;45.32;100237.47;5400429;32;34663;-82
2023/06/27 14:44:55;;;;;;;;;;;;;;;23.33;45.77;100246.97;5396767;32;33060;-68
2023/06/27 14:47:57;;;;;;;;;;;;;;;23.77;45.00;100232.00;5400366;32;34568;-69
2023/06/27 14:51:00;;;;;;;;;;;;;;;23.36;45.90;100223.37;5386454;32;35508;-83
2023/06/27 14:54:02;;;;;;;;;;;;;;;23.44;45.96;100223.50;5391543;32;33620;-69
2023/06/27 14:57:05;;;;;;;;;;;;;;;23.56;45.68;100224.13;5403409;32;34812;-68
2023/06/27 15:00:08;;;;;;;;;;;;;;;23.16;46.43;100225.25;5399145;32;34286;-68
2023/06/27 15:03:10;;;;;;;;;;;;;;;23.41;45.94;100214.88;5382269;32;34263;-69
2023/06/27 15:06:12;;;;;;;;;;;;;;;23.63;45.59;100214.53;5398780;32;35470;-68
2023/06/27 15:09:15;;;;;;;;;;;;;;;23.21;46.94;100216.78;5400095;32;35583;-69
2023/06/27 15:12:17;;;;;;;;;;;;;;;23.85;45.65;100201.75;5401869;32;34676;-68
2023/06/27 15:15:19;;;;;;;;;;;;;;;23.32;46.67;100197.84;5403622;32;35566;-67
2023/06/27 15:18:21;;;;;;;;;;;;;;;23.52;46.49;100195.94;5407216;32;35104;-68
2023/06/27 15:21:23;;;;;;;;;;;;;;;23.30;47.18;100198.97;5398169;32;35794;-68
2023/06/27 15:24:25;;;;;;;;;;;;;;;23.15;47.48;100198.59;5381678;32;843086;-68
2023/06/27 15:27:27;;;;;;;;;;;;;;;23.67;46.12;100191.78;5404010;32;34484;-81
2023/06/27 15:30:30;;;;;;;;;;;;;;;23.68;46.69;100196.16;5380910;32;34490;-81
2023/06/27 15:33:32;;;;;;;;;;;;;;;23.14;47.85;100207.63;5405167;32;34475;-68
2023/06/27 15:36:36;;;;;;;;;;;;;;;23.05;48.25;100203.97;5405372;32;34322;-68
2023/06/27 15:39:38;;;;;;;;;;;;;;;22.63;49.53;100206.97;5406568;32;35167;-82
2023/06/27 15:42:40;;;;;;;;;;;;;;;22.95;48.84;100195.97;5400876;32;35630;-68